Marble Dale, Connecticut
Current Conditions -  °F | °C
As of 9:55 AM on Sunday 23 Nov 2014 (Local Time) from KOXC Reporting Station
Broken Clouds Broken Clouds  
Wind Chill: 37°   Ceiling: 8000
Heat Index: 41°   Visibility: 10mi
Dew Point: 21°   Wind: 6mph
Humidity: 45%   Direction: 230°SW
Pressure: 30.19"   Gusts: NA
Location:  41.6879°N, 73.3378°W
Report Text: KOXC 231355Z 23005KT 10SM SCT060 BKN080 05/M06 A3019
Loading
Personal Weather Stations






























Interactive Weather Map New forecast layout! Learn more

10-Day Weather Forecast

Advertisements
Track Severe Weather on mobile